Time;durP1;ratioP1;P1;durP2;ratioP2;P2;SDS_P1;SDS_P2;PMS_P1;PMS_P2;Temp;Humidity;BMP_temperature;BMP_pressure;BME280_temperature;BME280_humidity;BME280_pressure;Samples;Min_cycle;Max_cycle;Signal;HPM_P1;HPM_P2
2023/10/06 00:00:41;;;;;;;0.80;0.80;;;;;;;;;;4976047;28;20065;-62
2023/10/06 00:03:10;;;;;;;0.60;0.60;;;;;;;;;;4975284;28;20046;-61
2023/10/06 00:05:39;;;;;;;0.85;0.85;;;;;;;;;;4982008;28;20615;-61
2023/10/06 00:08:40;;;;;;;0.80;0.80;;;;;;;;;;4967482;28;20119;-62
2023/10/06 00:10:56;;;;;;;0.80;0.80;;;;;;;;;;4970424;28;20062;-63
2023/10/06 00:13:29;;;;;;;0.80;0.80;;;;;;;;;;4989587;28;20031;-61
2023/10/06 00:15:55;;;;;;;0.70;0.70;;;;;;;;;;4969935;28;20034;-61
2023/10/06 00:18:27;;;;;;;0.80;0.80;;;;;;;;;;4983661;28;20026;-60
2023/10/06 00:20:56;;;;;;;0.88;0.88;;;;;;;;;;4975130;28;20037;-59
2023/10/06 00:23:22;;;;;;;0.80;0.80;;;;;;;;;;4972941;28;20069;-60
2023/10/06 00:25:57;;;;;;;0.90;0.90;;;;;;;;;;4971904;28;20035;-60
2023/10/06 00:28:26;;;;;;;0.80;0.80;;;;;;;;;;4979499;28;20490;-60
2023/10/06 00:31:06;;;;;;;0.80;0.80;;;;;;;;;;4991013;28;20763;-61
2023/10/06 00:33:37;;;;;;;0.90;0.90;;;;;;;;;;5000270;28;20476;-60
2023/10/06 00:36:17;;;;;;;0.85;0.85;;;;;;;;;;4986797;28;20058;-61
2023/10/06 00:38:47;;;;;;;0.80;0.80;;;;;;;;;;4973632;28;20070;-61
2023/10/06 00:41:14;;;;;;;0.80;0.80;;;;;;;;;;4971922;28;20034;-61
2023/10/06 00:43:39;;;;;;;0.90;0.90;;;;;;;;;;4976511;28;20122;-59
2023/10/06 00:46:08;;;;;;;0.90;0.90;;;;;;;;;;4992254;28;20129;-60
2023/10/06 00:48:41;;;;;;;0.73;0.73;;;;;;;;;;4985438;28;20122;-61
2023/10/06 00:51:12;;;;;;;0.80;0.80;;;;;;;;;;4976510;28;20034;-62
2023/10/06 00:53:38;;;;;;;0.90;0.90;;;;;;;;;;4978844;28;20039;-63
2023/10/06 00:56:10;;;;;;;0.90;0.90;;;;;;;;;;4980013;28;20026;-63
2023/10/06 00:58:39;;;;;;;0.80;0.80;;;;;;;;;;4983415;28;20045;-60
2023/10/06 01:01:05;;;;;;;0.88;0.88;;;;;;;;;;4988196;23;20054;-65
2023/10/06 01:03:31;;;;;;;0.80;0.80;;;;;;;;;;4976570;28;20041;-63
2023/10/06 01:06:01;;;;;;;0.80;0.80;;;;;;;;;;4968753;28;20023;-62
2023/10/06 01:08:28;;;;;;;0.80;0.80;;;;;;;;;;4979820;28;20034;-64
2023/10/06 01:11:02;;;;;;;0.90;0.90;;;;;;;;;;4973969;28;20038;-64
2023/10/06 01:13:28;;;;;;;0.80;0.80;;;;;;;;;;4972431;28;20065;-64
2023/10/06 01:15:56;;;;;;;0.80;0.80;;;;;;;;;;4980624;28;20037;-64
2023/10/06 01:18:35;;;;;;;0.80;0.80;;;;;;;;;;4974786;28;20049;-64
2023/10/06 01:21:13;;;;;;;0.80;0.80;;;;;;;;;;4977452;28;20039;-64
2023/10/06 01:23:39;;;;;;;0.80;0.80;;;;;;;;;;4970291;28;20063;-64
2023/10/06 01:26:05;;;;;;;0.85;0.85;;;;;;;;;;4974113;28;20031;-64
2023/10/06 01:28:34;;;;;;;0.82;0.82;;;;;;;;;;4972445;28;20045;-64
2023/10/06 01:31:02;;;;;;;0.80;0.80;;;;;;;;;;4974990;28;20551;-63
2023/10/06 01:33:28;;;;;;;0.80;0.80;;;;;;;;;;4974005;28;21288;-63
2023/10/06 01:35:55;;;;;;;0.90;0.90;;;;;;;;;;4975943;28;20472;-63
2023/10/06 01:38:23;;;;;;;1.00;1.00;;;;;;;;;;4959894;28;20077;-63
2023/10/06 01:40:53;;;;;;;0.80;0.80;;;;;;;;;;4975641;28;20027;-64
2023/10/06 01:43:22;;;;;;;0.80;0.80;;;;;;;;;;4972886;28;20035;-64
2023/10/06 01:45:48;;;;;;;0.80;0.80;;;;;;;;;;4974095;28;20114;-66
2023/10/06 01:50:39;;;;;;;0.90;0.90;;;;;;;;;;4981623;28;20436;-64
2023/10/06 01:53:06;;;;;;;0.90;0.90;;;;;;;;;;4963398;28;20252;-63
2023/10/06 01:55:37;;;;;;;0.80;0.80;;;;;;;;;;4981799;28;20026;-63
2023/10/06 01:58:04;;;;;;;0.80;0.80;;;;;;;;;;4971826;28;20045;-65
2023/10/06 02:00:34;;;;;;;0.80;0.80;;;;;;;;;;4979446;28;20444;-63
2023/10/06 02:03:00;;;;;;;0.80;0.80;;;;;;;;;;4975710;28;20039;-63
2023/10/06 02:05:26;;;;;;;0.90;0.90;;;;;;;;;;4969141;28;20039;-63
2023/10/06 02:07:51;;;;;;;0.80;0.80;;;;;;;;;;4973598;28;20055;-64
2023/10/06 02:10:18;;;;;;;0.80;0.80;;;;;;;;;;4976117;28;20085;-63
2023/10/06 02:12:44;;;;;;;0.90;0.90;;;;;;;;;;4977052;28;20027;-64
2023/10/06 02:15:10;;;;;;;0.90;0.90;;;;;;;;;;4973768;28;20038;-64
2023/10/06 02:17:40;;;;;;;0.90;0.90;;;;;;;;;;4976045;28;20286;-64
2023/10/06 02:20:28;;;;;;;0.85;0.85;;;;;;;;;;4975851;28;20030;-62
2023/10/06 02:22:55;;;;;;;0.82;0.82;;;;;;;;;;4968103;28;20058;-63
2023/10/06 02:25:20;;;;;;;0.90;0.90;;;;;;;;;;4975152;28;20851;-63
2023/10/06 02:27:47;;;;;;;0.90;0.90;;;;;;;;;;4973256;28;20118;-64
2023/10/06 02:30:19;;;;;;;0.90;0.90;;;;;;;;;;4982736;28;20058;-64
2023/10/06 02:32:45;;;;;;;0.95;0.95;;;;;;;;;;4990721;28;20041;-65
2023/10/06 02:35:17;;;;;;;0.70;0.70;;;;;;;;;;4976192;28;20026;-65
2023/10/06 02:37:45;;;;;;;0.85;0.85;;;;;;;;;;4969881;28;20034;-65
2023/10/06 02:40:11;;;;;;;0.80;0.80;;;;;;;;;;4977698;28;20080;-65
2023/10/06 02:42:43;;;;;;;0.90;0.90;;;;;;;;;;4980805;28;20030;-64
2023/10/06 02:45:08;;;;;;;0.90;0.90;;;;;;;;;;4970110;28;20039;-64
2023/10/06 02:47:35;;;;;;;0.90;0.90;;;;;;;;;;4971493;28;20042;-64
2023/10/06 02:50:07;;;;;;;0.83;0.83;;;;;;;;;;4973814;28;20153;-63
2023/10/06 02:52:37;;;;;;;1.00;1.00;;;;;;;;;;4976025;28;20330;-63
2023/10/06 02:57:28;;;;;;;0.90;0.90;;;;;;;;;;4972620;28;20073;-65
2023/10/06 03:00:03;;;;;;;0.90;0.90;;;;;;;;;;4971082;28;20042;-65
2023/10/06 03:02:32;;;;;;;0.90;0.90;;;;;;;;;;4969592;28;20093;-65
2023/10/06 03:05:10;;;;;;;0.90;0.90;;;;;;;;;;4968153;28;20058;-65
2023/10/06 03:07:38;;;;;;;0.93;0.93;;;;;;;;;;4976996;28;20027;-63
2023/10/06 03:10:08;;;;;;;0.80;0.80;;;;;;;;;;4975490;28;20116;-64
2023/10/06 03:12:34;;;;;;;0.90;0.90;;;;;;;;;;4971989;28;20130;-64
2023/10/06 03:15:01;;;;;;;1.00;1.00;;;;;;;;;;4977477;28;20154;-66
2023/10/06 03:17:26;;;;;;;0.80;0.80;;;;;;;;;;4977774;28;20038;-64
2023/10/06 03:20:12;;;;;;;0.88;0.88;;;;;;;;;;4965429;28;20105;-65
2023/10/06 03:22:40;;;;;;;1.00;1.00;;;;;;;;;;4988222;28;20173;-62
2023/10/06 03:25:15;;;;;;;1.00;1.00;;;;;;;;;;4976210;28;20031;-65
2023/10/06 03:27:41;;;;;;;0.80;0.80;;;;;;;;;;4988812;28;20380;-63
2023/10/06 03:30:11;;;;;;;0.90;0.90;;;;;;;;;;4973829;28;20037;-65
2023/10/06 03:32:40;;;;;;;1.00;1.00;;;;;;;;;;4976593;28;20373;-65
2023/10/06 03:35:45;;;;;;;0.90;0.90;;;;;;;;;;4984076;28;20039;-65
2023/10/06 03:38:27;;;;;;;0.90;0.90;;;;;;;;;;4952201;28;20497;-64
2023/10/06 03:43:45;;;;;;;0.85;0.85;;;;;;;;;;4967784;28;20062;-63
2023/10/06 03:46:11;;;;;;;1.00;1.00;;;;;;;;;;4974522;28;20045;-64
2023/10/06 03:48:38;;;;;;;0.98;0.98;;;;;;;;;;4974493;28;20019;-65
2023/10/06 03:51:05;;;;;;;0.90;0.90;;;;;;;;;;4971637;28;20045;-64
2023/10/06 03:53:31;;;;;;;1.00;1.00;;;;;;;;;;4971396;28;20038;-65
2023/10/06 03:55:57;;;;;;;0.82;0.82;;;;;;;;;;4979339;28;20508;-64
2023/10/06 03:58:27;;;;;;;0.93;0.93;;;;;;;;;;4973286;28;20038;-64
2023/10/06 04:00:52;;;;;;;0.88;0.88;;;;;;;;;;4966917;28;20389;-63
2023/10/06 04:03:18;;;;;;;1.00;1.00;;;;;;;;;;4973053;28;20031;-63
2023/10/06 04:05:48;;;;;;;0.85;0.85;;;;;;;;;;4975262;28;20168;-64
2023/10/06 04:08:16;;;;;;;1.00;1.00;;;;;;;;;;4968083;28;20041;-64
2023/10/06 04:10:45;;;;;;;0.85;0.85;;;;;;;;;;4970676;28;20053;-64
2023/10/06 04:13:10;;;;;;;0.90;0.90;;;;;;;;;;4972118;28;20035;-64
2023/10/06 04:15:40;;;;;;;0.90;0.90;;;;;;;;;;4978058;28;20038;-64
2023/10/06 04:18:11;;;;;;;0.95;0.95;;;;;;;;;;4966022;28;20700;-63
2023/10/06 04:20:42;;;;;;;0.80;0.80;;;;;;;;;;4974759;28;20146;-64
2023/10/06 04:23:08;;;;;;;0.98;0.98;;;;;;;;;;4973221;28;20030;-65
2023/10/06 04:25:37;;;;;;;0.90;0.90;;;;;;;;;;4961244;28;20762;-64
2023/10/06 04:28:16;;;;;;;0.80;0.80;;;;;;;;;;4971830;28;20027;-64
2023/10/06 04:30:42;;;;;;;1.00;1.00;;;;;;;;;;4973422;28;20053;-63
2023/10/06 04:33:10;;;;;;;0.90;0.90;;;;;;;;;;4976470;28;20549;-63
2023/10/06 04:35:42;;;;;;;0.90;0.90;;;;;;;;;;4973576;28;20042;-63
2023/10/06 04:38:10;;;;;;;0.90;0.90;;;;;;;;;;4967754;28;20085;-64
2023/10/06 04:40:40;;;;;;;0.90;0.90;;;;;;;;;;4967971;28;20901;-64
2023/10/06 04:43:06;;;;;;;1.00;1.00;;;;;;;;;;4975246;28;20047;-64
2023/10/06 04:45:32;;;;;;;0.80;0.80;;;;;;;;;;4978152;28;20475;-64
2023/10/06 04:48:00;;;;;;;0.80;0.80;;;;;;;;;;4972188;28;20058;-64
2023/10/06 04:50:26;;;;;;;0.80;0.80;;;;;;;;;;4973137;28;20121;-64
2023/10/06 04:52:54;;;;;;;0.90;0.90;;;;;;;;;;4975217;28;20432;-64
2023/10/06 04:55:19;;;;;;;0.90;0.90;;;;;;;;;;4972561;28;20387;-64
2023/10/06 04:57:44;;;;;;;0.90;0.90;;;;;;;;;;4973117;28;20034;-64
2023/10/06 05:00:13;;;;;;;0.90;0.90;;;;;;;;;;4969615;28;20037;-66
2023/10/06 05:02:46;;;;;;;0.90;0.90;;;;;;;;;;4985628;28;20223;-64
2023/10/06 05:05:12;;;;;;;0.95;0.95;;;;;;;;;;4973182;28;20039;-64
2023/10/06 05:07:38;;;;;;;0.80;0.80;;;;;;;;;;4965788;28;20586;-62
2023/10/06 05:10:13;;;;;;;0.90;0.90;;;;;;;;;;4968245;28;22198;-63
2023/10/06 05:12:38;;;;;;;0.90;0.90;;;;;;;;;;4968588;28;20035;-64
2023/10/06 05:15:07;;;;;;;0.80;0.80;;;;;;;;;;4960253;28;20039;-63
2023/10/06 05:17:34;;;;;;;0.90;0.90;;;;;;;;;;4968224;28;20031;-64
2023/10/06 05:19:59;;;;;;;0.98;0.98;;;;;;;;;;4970449;28;20039;-63
2023/10/06 05:22:24;;;;;;;1.00;1.00;;;;;;;;;;4970945;28;20035;-64
2023/10/06 05:24:50;;;;;;;0.90;0.90;;;;;;;;;;4968778;28;20612;-63
2023/10/06 05:27:19;;;;;;;1.00;1.00;;;;;;;;;;4975413;28;20026;-64
2023/10/06 05:29:45;;;;;;;1.00;1.00;;;;;;;;;;4952416;28;21888;-63
2023/10/06 05:32:11;;;;;;;0.90;0.90;;;;;;;;;;4967264;28;20037;-64
2023/10/06 05:34:40;;;;;;;0.90;0.90;;;;;;;;;;4973995;28;20361;-62
2023/10/06 05:37:08;;;;;;;0.95;0.95;;;;;;;;;;4971878;28;20023;-64
2023/10/06 05:39:33;;;;;;;0.88;0.88;;;;;;;;;;4971378;28;20026;-63
2023/10/06 05:41:59;;;;;;;0.85;0.85;;;;;;;;;;4972676;28;20038;-64
2023/10/06 05:44:24;;;;;;;1.00;1.00;;;;;;;;;;4970102;28;20109;-64
2023/10/06 05:46:50;;;;;;;0.88;0.88;;;;;;;;;;4978610;28;20035;-63
2023/10/06 05:49:20;;;;;;;0.90;0.90;;;;;;;;;;4972231;28;20788;-63
2023/10/06 05:51:46;;;;;;;1.00;1.00;;;;;;;;;;4978639;28;20467;-63
2023/10/06 05:54:18;;;;;;;1.00;1.00;;;;;;;;;;4974235;28;20030;-63
2023/10/06 05:56:45;;;;;;;0.80;0.80;;;;;;;;;;4971639;28;20469;-63
2023/10/06 05:59:12;;;;;;;0.82;0.82;;;;;;;;;;4973904;28;20034;-62
2023/10/06 06:01:37;;;;;;;;;;;;;;;;;;4974991;28;20037;-63
2023/10/06 06:04:09;;;;;;;0.90;0.90;;;;;;;;;;4978165;28;20533;-63
2023/10/06 06:06:36;;;;;;;0.90;0.90;;;;;;;;;;4973234;28;20317;-64
2023/10/06 06:09:02;;;;;;;0.93;0.93;;;;;;;;;;4980187;28;20038;-64
2023/10/06 06:11:28;;;;;;;1.00;1.00;;;;;;;;;;4971649;28;20831;-63
2023/10/06 06:13:56;;;;;;;1.00;1.00;;;;;;;;;;4969010;28;20733;-63
2023/10/06 06:16:22;;;;;;;1.00;1.00;;;;;;;;;;4972977;28;20101;-64
2023/10/06 06:18:50;;;;;;;0.90;0.90;;;;;;;;;;4974334;28;20714;-64
2023/10/06 06:21:24;;;;;;;0.93;0.93;;;;;;;;;;4976948;28;20476;-63
2023/10/06 06:23:49;;;;;;;0.98;0.98;;;;;;;;;;4971217;28;20117;-64
2023/10/06 06:26:17;;;;;;;1.00;1.00;;;;;;;;;;4970818;28;20109;-64
2023/10/06 06:28:43;;;;;;;1.00;1.00;;;;;;;;;;4976434;28;20108;-63
2023/10/06 06:31:18;;;;;;;0.90;0.90;;;;;;;;;;4972402;28;20105;-63
2023/10/06 06:33:43;;;;;;;0.90;0.90;;;;;;;;;;4968463;28;20105;-64
2023/10/06 06:36:09;;;;;;;0.90;0.90;;;;;;;;;;4976233;28;20154;-63
2023/10/06 06:38:39;;;;;;;0.80;0.80;;;;;;;;;;4974013;28;20077;-63
2023/10/06 06:41:05;;;;;;;0.90;0.90;;;;;;;;;;4973726;28;20026;-63
2023/10/06 06:43:31;;;;;;;0.90;0.90;;;;;;;;;;4974589;28;20069;-63
2023/10/06 06:45:58;;;;;;;0.90;0.90;;;;;;;;;;4974915;28;20030;-64
2023/10/06 06:48:24;;;;;;;0.90;0.90;;;;;;;;;;4969768;28;20035;-64
2023/10/06 06:50:49;;;;;;;0.80;0.80;;;;;;;;;;4968682;28;20051;-64
2023/10/06 06:53:18;;;;;;;0.80;0.80;;;;;;;;;;4968163;28;20114;-63
2023/10/06 06:55:43;;;;;;;0.80;0.80;;;;;;;;;;4970614;28;20137;-63
2023/10/06 06:58:10;;;;;;;0.90;0.90;;;;;;;;;;4973748;28;20569;-64
2023/10/06 07:00:42;;;;;;;0.85;0.85;;;;;;;;;;4975151;28;20066;-63
2023/10/06 07:03:08;;;;;;;0.80;0.80;;;;;;;;;;4972351;28;20061;-64
2023/10/06 07:05:35;;;;;;;0.80;0.80;;;;;;;;;;4973169;28;20034;-63
2023/10/06 07:08:03;;;;;;;0.80;0.80;;;;;;;;;;4970217;28;20023;-65
2023/10/06 07:10:29;;;;;;;0.80;0.80;;;;;;;;;;4969124;28;20031;-63
2023/10/06 07:12:54;;;;;;;0.70;0.70;;;;;;;;;;4984520;28;20037;-64
2023/10/06 07:15:20;;;;;;;0.80;0.80;;;;;;;;;;4976691;28;20105;-65
2023/10/06 07:17:46;;;;;;;0.80;0.80;;;;;;;;;;4968830;28;20086;-64
2023/10/06 07:20:16;;;;;;;0.70;0.70;;;;;;;;;;4974278;28;20038;-63
2023/10/06 07:22:54;;;;;;;0.70;0.70;;;;;;;;;;4968324;28;20031;-64
2023/10/06 07:25:20;;;;;;;0.60;0.60;;;;;;;;;;4972118;28;20039;-63
2023/10/06 07:27:46;;;;;;;0.70;0.70;;;;;;;;;;4973426;28;20034;-63
2023/10/06 07:30:14;;;;;;;0.70;0.70;;;;;;;;;;4970584;28;20030;-63
2023/10/06 07:32:43;;;;;;;0.70;0.70;;;;;;;;;;4971027;28;20038;-64
2023/10/06 07:35:18;;;;;;;0.70;0.70;;;;;;;;;;4971373;28;20062;-63
2023/10/06 07:37:44;;;;;;;0.60;0.60;;;;;;;;;;4968416;28;20432;-64
2023/10/06 07:40:13;;;;;;;0.60;0.60;;;;;;;;;;4968850;28;20034;-64
2023/10/06 07:42:40;;;;;;;0.63;0.63;;;;;;;;;;4969395;28;20039;-64
2023/10/06 07:45:06;;;;;;;0.70;0.70;;;;;;;;;;4977758;28;20058;-63
2023/10/06 07:47:33;;;;;;;0.68;0.68;;;;;;;;;;4975472;28;20065;-64
2023/10/06 07:49:58;;;;;;;0.60;0.60;;;;;;;;;;4966668;28;20669;-63
2023/10/06 07:52:24;;;;;;;0.63;0.63;;;;;;;;;;4969751;28;20556;-64
2023/10/06 07:54:49;;;;;;;0.60;0.60;;;;;;;;;;4969251;28;20073;-63
2023/10/06 07:57:15;;;;;;;0.60;0.60;;;;;;;;;;4971961;28;20046;-63
2023/10/06 07:59:41;;;;;;;0.70;0.70;;;;;;;;;;4972020;28;20378;-63
2023/10/06 08:02:07;;;;;;;0.60;0.60;;;;;;;;;;4973072;28;20540;-64
2023/10/06 08:04:32;;;;;;;0.50;0.50;;;;;;;;;;4974497;28;20101;-63
2023/10/06 08:06:58;;;;;;;0.60;0.60;;;;;;;;;;4973348;28;20166;-63
2023/10/06 08:09:25;;;;;;;0.47;0.47;;;;;;;;;;4967942;28;20089;-63
2023/10/06 08:11:54;;;;;;;0.60;0.60;;;;;;;;;;4961154;28;20038;-63
2023/10/06 08:14:20;;;;;;;0.60;0.60;;;;;;;;;;4974711;28;20034;-63
2023/10/06 08:16:49;;;;;;;0.50;0.50;;;;;;;;;;4974666;28;20403;-63
2023/10/06 08:19:15;;;;;;;0.50;0.50;;;;;;;;;;4980378;28;20078;-64
2023/10/06 08:21:41;;;;;;;0.60;0.60;;;;;;;;;;4967629;28;20902;-63
2023/10/06 08:24:06;;;;;;;0.50;0.50;;;;;;;;;;4970293;28;20042;-63
2023/10/06 08:26:32;;;;;;;0.50;0.50;;;;;;;;;;4973198;28;20034;-63
2023/10/06 08:28:57;;;;;;;0.50;0.50;;;;;;;;;;4963782;28;20077;-64
2023/10/06 08:31:24;;;;;;;0.50;0.50;;;;;;;;;;4967532;28;20030;-63
2023/10/06 08:33:49;;;;;;;0.60;0.60;;;;;;;;;;4968195;28;20027;-63
2023/10/06 08:36:16;;;;;;;0.50;0.50;;;;;;;;;;4972861;28;20294;-64
2023/10/06 08:38:44;;;;;;;0.53;0.53;;;;;;;;;;4965319;28;20027;-63
2023/10/06 08:41:10;;;;;;;0.50;0.50;;;;;;;;;;4966545;28;20335;-64
2023/10/06 08:43:36;;;;;;;0.50;0.50;;;;;;;;;;4967773;28;20035;-63
2023/10/06 08:46:02;;;;;;;0.45;0.45;;;;;;;;;;4965187;28;20061;-63
2023/10/06 08:48:35;;;;;;;0.40;0.40;;;;;;;;;;4966361;28;20118;-64
2023/10/06 08:51:06;;;;;;;0.40;0.40;;;;;;;;;;4958379;28;20046;-65
2023/10/06 08:53:35;;;;;;;0.40;0.40;;;;;;;;;;4966643;28;20050;-63
2023/10/06 08:56:00;;;;;;;0.40;0.40;;;;;;;;;;4973653;28;20416;-64
2023/10/06 08:58:26;;;;;;;0.30;0.30;;;;;;;;;;4965735;28;20019;-64
2023/10/06 09:00:52;;;;;;;0.30;0.30;;;;;;;;;;4968765;28;20139;-63
2023/10/06 09:03:20;;;;;;;0.40;0.40;;;;;;;;;;4967243;28;20046;-64
2023/10/06 09:05:45;;;;;;;0.40;0.40;;;;;;;;;;4956610;28;20023;-64
2023/10/06 09:08:17;;;;;;;0.32;0.32;;;;;;;;;;4966630;28;20031;-64
2023/10/06 09:10:43;;;;;;;0.30;0.30;;;;;;;;;;4958451;28;20030;-65
2023/10/06 09:13:11;;;;;;;0.30;0.30;;;;;;;;;;4974245;28;20026;-64
2023/10/06 09:15:36;;;;;;;0.30;0.30;;;;;;;;;;4971604;28;20037;-64
2023/10/06 09:18:20;;;;;;;0.38;0.38;;;;;;;;;;4971983;28;20451;-63
2023/10/06 09:20:47;;;;;;;0.30;0.30;;;;;;;;;;4971344;28;20056;-64
2023/10/06 09:23:28;;;;;;;0.32;0.32;;;;;;;;;;4962763;28;20435;-64
2023/10/06 09:25:55;;;;;;;0.30;0.30;;;;;;;;;;4961474;28;20063;-64
2023/10/06 09:28:21;;;;;;;0.30;0.30;;;;;;;;;;4969472;28;20046;-63
2023/10/06 09:30:50;;;;;;;0.30;0.30;;;;;;;;;;4969476;28;20074;-64
2023/10/06 09:33:16;;;;;;;0.30;0.30;;;;;;;;;;4975747;28;20346;-63
2023/10/06 09:35:43;;;;;;;0.30;0.30;;;;;;;;;;4967317;28;20022;-64
2023/10/06 09:38:13;;;;;;;0.30;0.30;;;;;;;;;;4963286;28;20484;-64
2023/10/06 09:40:43;;;;;;;0.30;0.30;;;;;;;;;;4973511;28;20027;-64
2023/10/06 09:43:11;;;;;;;0.30;0.30;;;;;;;;;;4962886;28;20570;-64
2023/10/06 09:45:37;;;;;;;0.30;0.30;;;;;;;;;;4962036;28;20059;-64
2023/10/06 09:48:05;;;;;;;0.30;0.30;;;;;;;;;;4974787;28;20027;-63
2023/10/06 09:50:31;;;;;;;0.30;0.30;;;;;;;;;;4959804;28;20044;-64
2023/10/06 09:53:03;;;;;;;0.20;0.20;;;;;;;;;;4971883;28;20062;-64
2023/10/06 09:55:29;;;;;;;0.30;0.30;;;;;;;;;;4971759;28;20022;-65
2023/10/06 09:57:55;;;;;;;0.30;0.30;;;;;;;;;;4973298;28;20875;-64
2023/10/06 10:00:21;;;;;;;0.25;0.25;;;;;;;;;;4973599;28;21266;-64
2023/10/06 10:02:47;;;;;;;0.20;0.20;;;;;;;;;;4972807;28;20041;-64
2023/10/06 10:05:18;;;;;;;0.20;0.20;;;;;;;;;;4969632;28;20712;-64
2023/10/06 10:07:44;;;;;;;0.30;0.30;;;;;;;;;;4967301;28;20018;-64
2023/10/06 10:10:10;;;;;;;0.20;0.20;;;;;;;;;;4970349;28;20073;-64
2023/10/06 10:12:42;;;;;;;0.30;0.30;;;;;;;;;;4976827;28;20179;-65
2023/10/06 10:15:15;;;;;;;0.30;0.30;;;;;;;;;;4973762;28;20035;-65
2023/10/06 10:17:50;;;;;;;0.30;0.30;;;;;;;;;;4972506;28;20084;-65
2023/10/06 10:20:16;;;;;;;0.20;0.20;;;;;;;;;;4968378;28;20171;-64
2023/10/06 10:22:42;;;;;;;0.20;0.20;;;;;;;;;;4965462;28;20501;-65
2023/10/06 10:25:08;;;;;;;0.20;0.20;;;;;;;;;;4969550;28;20035;-64
2023/10/06 10:27:37;;;;;;;0.20;0.20;;;;;;;;;;4968447;28;20061;-64
2023/10/06 10:30:09;;;;;;;0.20;0.20;;;;;;;;;;4970834;28;20069;-64
2023/10/06 10:32:41;;;;;;;0.20;0.20;;;;;;;;;;4976269;28;20050;-65
2023/10/06 10:35:17;;;;;;;0.20;0.20;;;;;;;;;;4966941;28;20400;-64
2023/10/06 10:37:55;;;;;;;0.20;0.20;;;;;;;;;;4967570;28;20034;-64
2023/10/06 10:40:22;;;;;;;0.20;0.20;;;;;;;;;;4966060;28;20061;-64
2023/10/06 10:42:50;;;;;;;0.20;0.20;;;;;;;;;;4959323;28;20066;-64
2023/10/06 10:45:34;;;;;;;0.20;0.20;;;;;;;;;;4971395;28;20109;-64
2023/10/06 10:47:59;;;;;;;0.20;0.20;;;;;;;;;;4967875;28;20109;-64
2023/10/06 10:50:48;;;;;;;0.20;0.20;;;;;;;;;;4974547;28;20098;-65
2023/10/06 10:53:17;;;;;;;0.20;0.20;;;;;;;;;;4970709;28;20069;-64
2023/10/06 10:55:43;;;;;;;0.20;0.20;;;;;;;;;;4968393;28;20023;-65
2023/10/06 10:58:09;;;;;;;0.20;0.20;;;;;;;;;;4965649;28;20037;-65
2023/10/06 11:00:34;;;;;;;0.20;0.20;;;;;;;;;;4969681;28;20121;-64
2023/10/06 11:03:00;;;;;;;0.17;0.17;;;;;;;;;;4963832;28;20023;-65
2023/10/06 11:05:27;;;;;;;0.20;0.20;;;;;;;;;;4948473;28;20018;-65
2023/10/06 11:08:02;;;;;;;0.20;0.20;;;;;;;;;;4962686;28;20031;-65
2023/10/06 11:10:27;;;;;;;0.20;0.20;;;;;;;;;;4966001;28;20320;-65
2023/10/06 11:13:13;;;;;;;0.13;0.13;;;;;;;;;;4974666;28;20123;-65
2023/10/06 11:15:38;;;;;;;0.20;0.20;;;;;;;;;;4938373;28;20039;-65
2023/10/06 11:18:06;;;;;;;0.10;0.10;;;;;;;;;;4976420;28;20050;-65
2023/10/06 11:20:35;;;;;;;0.10;0.10;;;;;;;;;;4962630;28;20041;-66
2023/10/06 11:23:00;;;;;;;0.10;0.10;;;;;;;;;;4959194;28;20035;-66
2023/10/06 11:25:27;;;;;;;0.10;0.10;;;;;;;;;;4966902;28;20455;-65
2023/10/06 11:28:12;;;;;;;0.10;0.10;;;;;;;;;;4959447;28;20042;-65
2023/10/06 11:30:38;;;;;;;0.10;0.10;;;;;;;;;;4969447;28;20764;-65
2023/10/06 11:33:05;;;;;;;0.10;0.10;;;;;;;;;;4974769;28;20022;-65
2023/10/06 11:35:31;;;;;;;0.10;0.10;;;;;;;;;;4967082;28;20034;-65
2023/10/06 11:37:56;;;;;;;0.00;0.00;;;;;;;;;;4969624;28;20031;-65
2023/10/06 11:40:24;;;;;;;0.10;0.10;;;;;;;;;;4959575;28;20114;-65
2023/10/06 11:42:49;;;;;;;0.00;0.00;;;;;;;;;;4975885;28;20025;-65
2023/10/06 11:45:27;;;;;;;0.10;0.10;;;;;;;;;;4972082;28;20027;-65
2023/10/06 11:47:53;;;;;;;0.00;0.00;;;;;;;;;;4960742;28;20037;-65
2023/10/06 11:50:22;;;;;;;0.00;0.00;;;;;;;;;;4967560;28;20034;-65
2023/10/06 11:52:49;;;;;;;0.00;0.00;;;;;;;;;;4973543;28;20026;-65
2023/10/06 11:55:14;;;;;;;;;;;;;;;;;;4967996;28;20053;-66
2023/10/06 11:57:46;;;;;;;0.00;0.00;;;;;;;;;;4968474;28;19956;-66
2023/10/06 12:00:18;;;;;;;0.00;0.00;;;;;;;;;;4961783;28;20034;-65
2023/10/06 12:02:49;;;;;;;0.00;0.00;;;;;;;;;;4959454;28;20062;-66
2023/10/06 12:05:16;;;;;;;0.00;0.00;;;;;;;;;;4971339;28;20148;-65
2023/10/06 12:07:42;;;;;;;0.00;0.00;;;;;;;;;;4962159;28;20054;-65
2023/10/06 12:10:08;;;;;;;0.00;0.00;;;;;;;;;;4974534;28;20117;-66
2023/10/06 12:12:33;;;;;;;;;;;;;;;;;;4969594;28;20018;-66
2023/10/06 12:14:59;;;;;;;0.00;0.00;;;;;;;;;;4967328;28;20435;-66
2023/10/06 12:17:27;;;;;;;0.00;0.00;;;;;;;;;;4968732;28;20023;-65
2023/10/06 12:19:52;;;;;;;0.00;0.00;;;;;;;;;;4968719;28;20169;-65
2023/10/06 12:22:18;;;;;;;0.00;0.00;;;;;;;;;;4970732;28;20910;-66
2023/10/06 12:24:45;;;;;;;0.00;0.00;;;;;;;;;;4965205;28;20022;-65
2023/10/06 12:27:10;;;;;;;0.00;0.00;;;;;;;;;;4967655;28;20081;-65
2023/10/06 12:29:35;;;;;;;0.00;0.00;;;;;;;;;;4977934;28;20046;-65
2023/10/06 12:32:01;;;;;;;0.00;0.00;;;;;;;;;;4968637;28;20264;-66
2023/10/06 12:34:27;;;;;;;0.00;0.00;;;;;;;;;;4967829;28;20751;-65
2023/10/06 12:36:55;;;;;;;0.00;0.00;;;;;;;;;;4955571;28;20101;-65
2023/10/06 12:39:38;;;;;;;0.00;0.00;;;;;;;;;;4960650;28;20034;-66
2023/10/06 12:42:05;;;;;;;0.00;0.00;;;;;;;;;;4968548;28;20085;-65
2023/10/06 12:44:30;;;;;;;;;;;;;;;;;;4962941;28;20041;-66
2023/10/06 12:46:55;;;;;;;0.00;0.00;;;;;;;;;;4963595;28;19913;-65
2023/10/06 12:49:23;;;;;;;0.00;0.00;;;;;;;;;;4977138;28;20043;-66
2023/10/06 12:51:48;;;;;;;0.00;0.00;;;;;;;;;;4969744;28;20046;-65
2023/10/06 12:54:14;;;;;;;0.00;0.00;;;;;;;;;;4976933;28;20038;-66
2023/10/06 12:56:44;;;;;;;0.00;0.00;;;;;;;;;;4964550;28;20373;-65
2023/10/06 12:59:10;;;;;;;0.00;0.00;;;;;;;;;;4966915;28;20046;-66
2023/10/06 13:01:35;;;;;;;0.00;0.00;;;;;;;;;;4975047;28;20092;-65
2023/10/06 13:04:00;;;;;;;0.00;0.00;;;;;;;;;;4971289;28;20481;-65
2023/10/06 13:06:26;;;;;;;0.00;0.00;;;;;;;;;;4976608;28;20475;-66
2023/10/06 13:08:51;;;;;;;0.00;0.00;;;;;;;;;;4968195;28;20034;-66
2023/10/06 13:11:18;;;;;;;0.00;0.00;;;;;;;;;;4965889;28;20569;-65
2023/10/06 13:13:49;;;;;;;0.00;0.00;;;;;;;;;;4971531;28;20038;-65
2023/10/06 13:16:15;;;;;;;0.00;0.00;;;;;;;;;;4964580;28;20050;-65
2023/10/06 13:18:40;;;;;;;0.00;0.00;;;;;;;;;;4968946;28;20034;-64
2023/10/06 13:21:07;;;;;;;0.00;0.00;;;;;;;;;;4968229;28;20046;-64
2023/10/06 13:23:33;;;;;;;0.00;0.00;;;;;;;;;;4965461;28;20691;-65
2023/10/06 13:25:59;;;;;;;0.00;0.00;;;;;;;;;;4970766;28;20053;-65
2023/10/06 13:28:25;;;;;;;0.00;0.00;;;;;;;;;;4971281;28;20037;-64
2023/10/06 13:30:51;;;;;;;0.00;0.00;;;;;;;;;;4984890;28;20146;-65
2023/10/06 13:33:17;;;;;;;0.00;0.00;;;;;;;;;;4962199;28;20038;-65
2023/10/06 13:35:43;;;;;;;0.00;0.00;;;;;;;;;;4966215;28;20448;-64
2023/10/06 13:38:10;;;;;;;0.00;0.00;;;;;;;;;;4970798;28;20276;-64
2023/10/06 13:40:37;;;;;;;0.00;0.00;;;;;;;;;;4968957;28;20026;-64
2023/10/06 13:43:02;;;;;;;0.00;0.00;;;;;;;;;;4972746;28;20030;-64
2023/10/06 13:45:30;;;;;;;0.00;0.00;;;;;;;;;;4972658;28;20404;-64
2023/10/06 13:47:55;;;;;;;0.00;0.00;;;;;;;;;;4962581;28;20288;-64
2023/10/06 13:50:22;;;;;;;0.00;0.00;;;;;;;;;;4967519;28;20041;-64
2023/10/06 13:52:49;;;;;;;0.00;0.00;;;;;;;;;;4958432;28;20541;-64
2023/10/06 13:55:16;;;;;;;0.00;0.00;;;;;;;;;;4964485;28;20061;-65
2023/10/06 13:57:42;;;;;;;0.00;0.00;;;;;;;;;;4970993;28;20061;-64
2023/10/06 14:00:11;;;;;;;0.00;0.00;;;;;;;;;;4977604;28;20034;-64
2023/10/06 14:02:37;;;;;;;0.00;0.00;;;;;;;;;;4979634;28;20125;-64
2023/10/06 14:05:03;;;;;;;0.00;0.00;;;;;;;;;;4962573;28;20141;-64
2023/10/06 14:07:28;;;;;;;0.00;0.00;;;;;;;;;;4972060;28;20042;-64
2023/10/06 14:09:54;;;;;;;0.00;0.00;;;;;;;;;;4962378;28;20045;-64
2023/10/06 14:12:20;;;;;;;0.00;0.00;;;;;;;;;;4964808;28;20277;-64
2023/10/06 14:17:16;;;;;;;0.00;0.00;;;;;;;;;;4966733;28;20496;-64
2023/10/06 14:19:44;;;;;;;0.00;0.00;;;;;;;;;;4973040;28;20026;-64
2023/10/06 14:22:10;;;;;;;0.00;0.00;;;;;;;;;;4977941;28;20062;-64
2023/10/06 14:24:39;;;;;;;0.00;0.00;;;;;;;;;;4965647;28;20049;-64
2023/10/06 14:27:05;;;;;;;0.00;0.00;;;;;;;;;;4974037;28;20531;-64
2023/10/06 14:29:31;;;;;;;0.00;0.00;;;;;;;;;;4968592;28;20030;-63
2023/10/06 14:32:11;;;;;;;0.00;0.00;;;;;;;;;;4971054;28;20471;-63
2023/10/06 14:34:56;;;;;;;0.00;0.00;;;;;;;;;;4972781;28;20073;-64
2023/10/06 14:37:40;;;;;;;0.00;0.00;;;;;;;;;;4971419;28;20109;-63
2023/10/06 14:48:23;;;;;;;0.00;0.00;;;;;;;;;;4973742;28;20027;-64
2023/10/06 14:50:55;;;;;;;0.10;0.10;;;;;;;;;;4967309;28;20121;-64
2023/10/06 14:53:20;;;;;;;0.00;0.00;;;;;;;;;;4965613;28;20034;-64
2023/10/06 14:55:47;;;;;;;0.00;0.00;;;;;;;;;;4978153;28;20460;-64
2023/10/06 14:58:12;;;;;;;0.00;0.00;;;;;;;;;;4977873;28;20404;-64
2023/10/06 15:00:38;;;;;;;0.00;0.00;;;;;;;;;;4972369;28;20514;-63
2023/10/06 15:03:03;;;;;;;0.00;0.00;;;;;;;;;;4973757;28;20354;-64
2023/10/06 15:05:36;;;;;;;0.00;0.00;;;;;;;;;;4973600;28;20871;-64
2023/10/06 15:08:02;;;;;;;0.00;0.00;;;;;;;;;;4971735;28;20035;-64